sensor_id;sensor_type;location;lat;lon;timestamp;pressure;altitude;pressure_sealevel;temperature;humidity
17781;BME280;8498;52.516;13.790;2023-12-20T00:00:24;100421.03;;;7.74;100.00
17781;BME280;8498;52.516;13.790;2023-12-20T00:05:47;100420.28;;;7.72;100.00
17781;BME280;8498;52.516;13.790;2023-12-20T00:11:09;100413.19;;;7.73;100.00
17781;BME280;8498;52.516;13.790;2023-12-20T00:16:31;100406.69;;;7.79;100.00
17781;BME280;8498;52.516;13.790;2023-12-20T00:21:54;100388.28;;;7.77;100.00
17781;BME280;8498;52.516;13.790;2023-12-20T00:27:16;100384.78;;;7.77;100.00
17781;BME280;8498;52.516;13.790;2023-12-20T00:32:39;100394.41;;;7.78;100.00
17781;BME280;8498;52.516;13.790;2023-12-20T00:38:03;100383.44;;;7.69;100.00
17781;BME280;8498;52.516;13.790;2023-12-20T00:43:27;100384.88;;;7.75;100.00
17781;BME280;8498;52.516;13.790;2023-12-20T00:48:50;100384.47;;;7.81;100.00
17781;BME280;8498;52.516;13.790;2023-12-20T00:54:12;100385.25;;;7.83;100.00
17781;BME280;8498;52.516;13.790;2023-12-20T00:59:35;100379.03;;;7.84;100.00
17781;BME280;8498;52.516;13.790;2023-12-20T01:04:58;100372.19;;;7.80;100.00
17781;BME280;8498;52.516;13.790;2023-12-20T01:10:21;100386.00;;;7.85;100.00
17781;BME280;8498;52.516;13.790;2023-12-20T01:15:44;100388.47;;;7.74;100.00
17781;BME280;8498;52.516;13.790;2023-12-20T01:21:07;100395.28;;;7.78;100.00
17781;BME280;8498;52.516;13.790;2023-12-20T01:26:31;100376.66;;;7.80;100.00
17781;BME280;8498;52.516;13.790;2023-12-20T01:31:54;100374.13;;;7.78;100.00
17781;BME280;8498;52.516;13.790;2023-12-20T01:37:16;100375.78;;;7.79;100.00
17781;BME280;8498;52.516;13.790;2023-12-20T01:42:39;100373.34;;;7.76;100.00
17781;BME280;8498;52.516;13.790;2023-12-20T01:48:02;100356.63;;;7.76;100.00
17781;BME280;8498;52.516;13.790;2023-12-20T01:53:27;100362.19;;;7.71;100.00
17781;BME280;8498;52.516;13.790;2023-12-20T01:58:49;100350.69;;;7.72;100.00
17781;BME280;8498;52.516;13.790;2023-12-20T02:04:12;100360.13;;;7.76;100.00
17781;BME280;8498;52.516;13.790;2023-12-20T02:09:34;100353.06;;;7.77;100.00
17781;BME280;8498;52.516;13.790;2023-12-20T02:14:57;100353.91;;;7.77;100.00
17781;BME280;8498;52.516;13.790;2023-12-20T02:20:19;100344.09;;;7.65;100.00
17781;BME280;8498;52.516;13.790;2023-12-20T02:25:41;100348.78;;;7.74;100.00
17781;BME280;8498;52.516;13.790;2023-12-20T02:31:04;100363.16;;;7.84;100.00
17781;BME280;8498;52.516;13.790;2023-12-20T02:36:27;100346.72;;;7.93;100.00
17781;BME280;8498;52.516;13.790;2023-12-20T02:41:49;100356.06;;;7.99;100.00
17781;BME280;8498;52.516;13.790;2023-12-20T02:47:11;100341.88;;;8.00;100.00
17781;BME280;8498;52.516;13.790;2023-12-20T02:52:33;100343.66;;;7.99;100.00
17781;BME280;8498;52.516;13.790;2023-12-20T02:57:56;100342.72;;;8.00;100.00
17781;BME280;8498;52.516;13.790;2023-12-20T03:03:18;100356.13;;;8.11;100.00
17781;BME280;8498;52.516;13.790;2023-12-20T03:08:40;100353.56;;;8.10;100.00
17781;BME280;8498;52.516;13.790;2023-12-20T03:14:03;100339.63;;;8.08;100.00
17781;BME280;8498;52.516;13.790;2023-12-20T03:19:26;100350.66;;;8.15;100.00
17781;BME280;8498;52.516;13.790;2023-12-20T03:24:48;100361.22;;;8.15;100.00
17781;BME280;8498;52.516;13.790;2023-12-20T03:30:11;100351.78;;;8.10;100.00
17781;BME280;8498;52.516;13.790;2023-12-20T03:35:34;100350.47;;;8.03;100.00
17781;BME280;8498;52.516;13.790;2023-12-20T03:40:56;100357.81;;;8.13;100.00
17781;BME280;8498;52.516;13.790;2023-12-20T03:46:18;100359.72;;;8.10;100.00
17781;BME280;8498;52.516;13.790;2023-12-20T03:51:41;100361.41;;;8.11;100.00
17781;BME280;8498;52.516;13.790;2023-12-20T03:57:05;100363.88;;;8.00;100.00
17781;BME280;8498;52.516;13.790;2023-12-20T04:02:27;100360.97;;;8.05;100.00
17781;BME280;8498;52.516;13.790;2023-12-20T04:07:49;100343.38;;;8.04;100.00
17781;BME280;8498;52.516;13.790;2023-12-20T04:13:12;100357.09;;;7.96;100.00
17781;BME280;8498;52.516;13.790;2023-12-20T04:18:35;100350.88;;;7.97;100.00
17781;BME280;8498;52.516;13.790;2023-12-20T04:23:58;100347.84;;;7.89;100.00
17781;BME280;8498;52.516;13.790;2023-12-20T04:29:21;100354.53;;;7.81;100.00
17781;BME280;8498;52.516;13.790;2023-12-20T04:34:43;100338.50;;;7.84;100.00
17781;BME280;8498;52.516;13.790;2023-12-20T04:40:06;100338.59;;;7.82;100.00
17781;BME280;8498;52.516;13.790;2023-12-20T04:45:31;100345.31;;;7.73;100.00
17781;BME280;8498;52.516;13.790;2023-12-20T04:50:53;100330.56;;;7.69;100.00
17781;BME280;8498;52.516;13.790;2023-12-20T04:56:15;100321.69;;;7.70;100.00
17781;BME280;8498;52.516;13.790;2023-12-20T05:01:37;100318.75;;;7.61;100.00
17781;BME280;8498;52.516;13.790;2023-12-20T05:07:01;100332.00;;;7.47;100.00
17781;BME280;8498;52.516;13.790;2023-12-20T05:12:23;100327.44;;;7.34;100.00
17781;BME280;8498;52.516;13.790;2023-12-20T05:17:45;100323.31;;;7.45;100.00
17781;BME280;8498;52.516;13.790;2023-12-20T05:23:08;100328.59;;;7.45;100.00
17781;BME280;8498;52.516;13.790;2023-12-20T05:28:31;100328.75;;;7.42;100.00
17781;BME280;8498;52.516;13.790;2023-12-20T05:33:53;100324.41;;;7.41;100.00
17781;BME280;8498;52.516;13.790;2023-12-20T05:39:16;100332.91;;;7.31;100.00
17781;BME280;8498;52.516;13.790;2023-12-20T05:44:38;100339.34;;;7.42;100.00
17781;BME280;8498;52.516;13.790;2023-12-20T05:50:01;100329.50;;;7.29;100.00
17781;BME280;8498;52.516;13.790;2023-12-20T05:55:23;100321.94;;;7.37;100.00
17781;BME280;8498;52.516;13.790;2023-12-20T06:00:46;100316.53;;;7.11;100.00
17781;BME280;8498;52.516;13.790;2023-12-20T06:06:09;100323.44;;;7.13;100.00
17781;BME280;8498;52.516;13.790;2023-12-20T06:11:38;100318.16;;;7.13;100.00
17781;BME280;8498;52.516;13.790;2023-12-20T06:17:01;100303.50;;;7.08;100.00
17781;BME280;8498;52.516;13.790;2023-12-20T06:22:23;100308.69;;;6.95;100.00
17781;BME280;8498;52.516;13.790;2023-12-20T06:27:46;100307.25;;;6.89;100.00
17781;BME280;8498;52.516;13.790;2023-12-20T06:33:09;100309.59;;;6.80;100.00
17781;BME280;8498;52.516;13.790;2023-12-20T06:38:33;100314.19;;;6.76;100.00
17781;BME280;8498;52.516;13.790;2023-12-20T06:43:56;100315.22;;;6.74;100.00
17781;BME280;8498;52.516;13.790;2023-12-20T06:49:18;100314.06;;;6.63;100.00
17781;BME280;8498;52.516;13.790;2023-12-20T06:54:41;100312.84;;;6.69;100.00
17781;BME280;8498;52.516;13.790;2023-12-20T07:00:04;100306.63;;;6.70;100.00
17781;BME280;8498;52.516;13.790;2023-12-20T07:05:26;100303.38;;;6.65;100.00
17781;BME280;8498;52.516;13.790;2023-12-20T07:10:49;100306.56;;;6.56;100.00
17781;BME280;8498;52.516;13.790;2023-12-20T07:16:11;100309.22;;;6.56;100.00
17781;BME280;8498;52.516;13.790;2023-12-20T07:21:33;100311.09;;;6.54;100.00
17781;BME280;8498;52.516;13.790;2023-12-20T07:26:55;100300.28;;;6.58;100.00
17781;BME280;8498;52.516;13.790;2023-12-20T07:32:17;100302.53;;;6.64;100.00
17781;BME280;8498;52.516;13.790;2023-12-20T07:37:40;100314.22;;;6.60;100.00
17781;BME280;8498;52.516;13.790;2023-12-20T07:43:03;100320.84;;;6.68;100.00
17781;BME280;8498;52.516;13.790;2023-12-20T07:48:25;100311.06;;;6.70;100.00
17781;BME280;8498;52.516;13.790;2023-12-20T07:53:47;100302.03;;;6.74;100.00
17781;BME280;8498;52.516;13.790;2023-12-20T07:59:10;100295.22;;;6.70;100.00
17781;BME280;8498;52.516;13.790;2023-12-20T08:04:46;100299.41;;;6.74;100.00
17781;BME280;8498;52.516;13.790;2023-12-20T08:10:10;100303.28;;;6.82;100.00
17781;BME280;8498;52.516;13.790;2023-12-20T08:15:32;100308.88;;;6.92;100.00
17781;BME280;8498;52.516;13.790;2023-12-20T08:20:54;100311.28;;;6.81;100.00
17781;BME280;8498;52.516;13.790;2023-12-20T08:26:19;100294.72;;;6.93;100.00
17781;BME280;8498;52.516;13.790;2023-12-20T08:31:43;100295.50;;;6.95;100.00
17781;BME280;8498;52.516;13.790;2023-12-20T08:37:05;100298.69;;;7.00;100.00
17781;BME280;8498;52.516;13.790;2023-12-20T08:42:27;100300.16;;;7.06;100.00
17781;BME280;8498;52.516;13.790;2023-12-20T08:47:53;100302.44;;;6.96;100.00
17781;BME280;8498;52.516;13.790;2023-12-20T08:53:18;100290.59;;;7.03;100.00
17781;BME280;8498;52.516;13.790;2023-12-20T08:58:41;100299.50;;;7.16;100.00
17781;BME280;8498;52.516;13.790;2023-12-20T09:04:04;100279.56;;;7.82;100.00
17781;BME280;8498;52.516;13.790;2023-12-20T09:09:26;100297.81;;;7.58;100.00
17781;BME280;8498;52.516;13.790;2023-12-20T09:14:50;100283.06;;;7.40;100.00
17781;BME280;8498;52.516;13.790;2023-12-20T09:20:13;100278.47;;;7.43;100.00
17781;BME280;8498;52.516;13.790;2023-12-20T09:25:36;100270.34;;;7.60;100.00
17781;BME280;8498;52.516;13.790;2023-12-20T09:30:59;100264.38;;;7.85;100.00
17781;BME280;8498;52.516;13.790;2023-12-20T09:36:22;100260.97;;;7.83;100.00
17781;BME280;8498;52.516;13.790;2023-12-20T09:41:45;100255.13;;;7.64;100.00
17781;BME280;8498;52.516;13.790;2023-12-20T09:47:11;100249.84;;;7.50;100.00
17781;BME280;8498;52.516;13.790;2023-12-20T09:52:36;100250.78;;;7.49;100.00
17781;BME280;8498;52.516;13.790;2023-12-20T09:57:59;100251.38;;;7.40;100.00
17781;BME280;8498;52.516;13.790;2023-12-20T10:03:25;100240.22;;;7.49;100.00
17781;BME280;8498;52.516;13.790;2023-12-20T10:08:50;100232.13;;;7.37;100.00
17781;BME280;8498;52.516;13.790;2023-12-20T10:14:13;100222.38;;;7.38;100.00
17781;BME280;8498;52.516;13.790;2023-12-20T10:19:37;100211.91;;;7.51;100.00
17781;BME280;8498;52.516;13.790;2023-12-20T10:24:59;100197.94;;;7.49;100.00
17781;BME280;8498;52.516;13.790;2023-12-20T10:30:22;100177.56;;;7.51;100.00
17781;BME280;8498;52.516;13.790;2023-12-20T10:35:44;100185.31;;;7.54;100.00
17781;BME280;8498;52.516;13.790;2023-12-20T10:41:09;100177.00;;;7.46;100.00
17781;BME280;8498;52.516;13.790;2023-12-20T10:46:33;100177.19;;;7.43;100.00
17781;BME280;8498;52.516;13.790;2023-12-20T10:51:56;100168.09;;;7.61;100.00
17781;BME280;8498;52.516;13.790;2023-12-20T10:57:22;100154.34;;;8.22;100.00
17781;BME280;8498;52.516;13.790;2023-12-20T11:02:45;100132.34;;;7.82;100.00
17781;BME280;8498;52.516;13.790;2023-12-20T11:08:33;100135.53;;;7.87;100.00
17781;BME280;8498;52.516;13.790;2023-12-20T11:14:07;100127.59;;;7.87;100.00
17781;BME280;8498;52.516;13.790;2023-12-20T11:19:36;100126.84;;;7.85;100.00
17781;BME280;8498;52.516;13.790;2023-12-20T11:25:07;100109.09;;;7.87;100.00
17781;BME280;8498;52.516;13.790;2023-12-20T11:30:51;100105.09;;;7.94;100.00
17781;BME280;8498;52.516;13.790;2023-12-20T11:36:15;100101.78;;;7.91;99.08
17781;BME280;8498;52.516;13.790;2023-12-20T11:41:40;100080.25;;;7.97;100.00
17781;BME280;8498;52.516;13.790;2023-12-20T11:47:03;100074.59;;;7.76;100.00
17781;BME280;8498;52.516;13.790;2023-12-20T11:52:25;100067.03;;;7.70;100.00
17781;BME280;8498;52.516;13.790;2023-12-20T11:57:48;100052.34;;;7.66;100.00
17781;BME280;8498;52.516;13.790;2023-12-20T12:03:14;100029.50;;;7.65;100.00
17781;BME280;8498;52.516;13.790;2023-12-20T12:08:37;100021.00;;;7.60;100.00
17781;BME280;8498;52.516;13.790;2023-12-20T12:14:00;100018.03;;;7.52;100.00
17781;BME280;8498;52.516;13.790;2023-12-20T12:19:24;100000.47;;;7.51;100.00
17781;BME280;8498;52.516;13.790;2023-12-20T12:24:47;99981.72;;;7.68;100.00
17781;BME280;8498;52.516;13.790;2023-12-20T12:30:10;99965.22;;;7.64;100.00
17781;BME280;8498;52.516;13.790;2023-12-20T12:35:34;99958.63;;;7.45;100.00
17781;BME280;8498;52.516;13.790;2023-12-20T12:40:57;99944.47;;;7.71;100.00
17781;BME280;8498;52.516;13.790;2023-12-20T12:46:21;99928.50;;;7.60;100.00
17781;BME280;8498;52.516;13.790;2023-12-20T12:51:43;99930.81;;;7.52;100.00
17781;BME280;8498;52.516;13.790;2023-12-20T12:57:07;99931.66;;;7.40;100.00
17781;BME280;8498;52.516;13.790;2023-12-20T13:02:29;99919.81;;;7.32;100.00
17781;BME280;8498;52.516;13.790;2023-12-20T13:07:51;99910.09;;;7.33;100.00
17781;BME280;8498;52.516;13.790;2023-12-20T13:13:14;99900.34;;;7.33;100.00
17781;BME280;8498;52.516;13.790;2023-12-20T13:18:36;99876.47;;;7.22;100.00
17781;BME280;8498;52.516;13.790;2023-12-20T13:23:59;99906.25;;;7.24;100.00
17781;BME280;8498;52.516;13.790;2023-12-20T13:29:22;99903.63;;;7.24;100.00
17781;BME280;8498;52.516;13.790;2023-12-20T13:34:44;99924.53;;;7.15;100.00
17781;BME280;8498;52.516;13.790;2023-12-20T13:40:07;99955.38;;;7.14;100.00
17781;BME280;8498;52.516;13.790;2023-12-20T13:45:30;99963.88;;;7.05;100.00
17781;BME280;8498;52.516;13.790;2023-12-20T13:50:52;99959.50;;;6.91;100.00
17781;BME280;8498;52.516;13.790;2023-12-20T13:56:15;99935.31;;;6.71;100.00
17781;BME280;8498;52.516;13.790;2023-12-20T14:01:37;99951.53;;;6.64;100.00
17781;BME280;8498;52.516;13.790;2023-12-20T14:07:00;99963.41;;;6.72;100.00
17781;BME280;8498;52.516;13.790;2023-12-20T14:12:23;99985.09;;;6.62;100.00
17781;BME280;8498;52.516;13.790;2023-12-20T14:17:46;99991.16;;;6.50;100.00
17781;BME280;8498;52.516;13.790;2023-12-20T14:23:09;100002.81;;;6.46;100.00
17781;BME280;8498;52.516;13.790;2023-12-20T14:28:34;100001.69;;;6.50;100.00
17781;BME280;8498;52.516;13.790;2023-12-20T14:33:57;100021.50;;;6.43;100.00
17781;BME280;8498;52.516;13.790;2023-12-20T14:39:21;100018.66;;;6.32;100.00
17781;BME280;8498;52.516;13.790;2023-12-20T14:44:44;100035.81;;;6.39;100.00
17781;BME280;8498;52.516;13.790;2023-12-20T14:50:07;100027.31;;;6.48;100.00
17781;BME280;8498;52.516;13.790;2023-12-20T14:55:30;100023.00;;;6.61;100.00
17781;BME280;8498;52.516;13.790;2023-12-20T15:00:53;100024.13;;;6.57;100.00
17781;BME280;8498;52.516;13.790;2023-12-20T15:06:15;100027.50;;;6.59;100.00
17781;BME280;8498;52.516;13.790;2023-12-20T15:11:38;100023.47;;;6.54;100.00
17781;BME280;8498;52.516;13.790;2023-12-20T15:17:01;100037.81;;;6.64;100.00
17781;BME280;8498;52.516;13.790;2023-12-20T15:22:24;100030.59;;;6.66;100.00
17781;BME280;8498;52.516;13.790;2023-12-20T15:27:48;100039.00;;;6.73;100.00
17781;BME280;8498;52.516;13.790;2023-12-20T15:33:15;100046.34;;;6.68;100.00
17781;BME280;8498;52.516;13.790;2023-12-20T15:38:37;100043.22;;;6.75;100.00
17781;BME280;8498;52.516;13.790;2023-12-20T15:44:01;100038.53;;;6.66;100.00
17781;BME280;8498;52.516;13.790;2023-12-20T15:49:24;100044.47;;;6.70;100.00
17781;BME280;8498;52.516;13.790;2023-12-20T15:54:46;100043.22;;;6.75;100.00
17781;BME280;8498;52.516;13.790;2023-12-20T16:00:11;100081.03;;;6.76;100.00
17781;BME280;8498;52.516;13.790;2023-12-20T16:05:33;100068.59;;;6.78;100.00
17781;BME280;8498;52.516;13.790;2023-12-20T16:10:55;100073.41;;;6.71;100.00
17781;BME280;8498;52.516;13.790;2023-12-20T16:16:18;100068.59;;;6.49;100.00
17781;BME280;8498;52.516;13.790;2023-12-20T16:21:41;100063.06;;;6.54;100.00
17781;BME280;8498;52.516;13.790;2023-12-20T16:27:04;100064.25;;;6.34;100.00
17781;BME280;8498;52.516;13.790;2023-12-20T16:32:27;100078.94;;;6.24;100.00
17781;BME280;8498;52.516;13.790;2023-12-20T16:37:49;100075.56;;;6.22;100.00
17781;BME280;8498;52.516;13.790;2023-12-20T16:43:12;100086.28;;;6.19;100.00
17781;BME280;8498;52.516;13.790;2023-12-20T16:48:35;100077.97;;;6.11;100.00
17781;BME280;8498;52.516;13.790;2023-12-20T16:53:58;100080.31;;;6.01;100.00
17781;BME280;8498;52.516;13.790;2023-12-20T16:59:21;100084.19;;;6.10;100.00
17781;BME280;8498;52.516;13.790;2023-12-20T17:04:44;100090.19;;;6.42;100.00
17781;BME280;8498;52.516;13.790;2023-12-20T17:10:06;100086.84;;;6.10;100.00
17781;BME280;8498;52.516;13.790;2023-12-20T17:15:29;100069.47;;;6.06;100.00
17781;BME280;8498;52.516;13.790;2023-12-20T17:20:52;100083.97;;;5.99;100.00
17781;BME280;8498;52.516;13.790;2023-12-20T17:26:14;100098.25;;;5.95;100.00
17781;BME280;8498;52.516;13.790;2023-12-20T17:31:36;100085.47;;;6.03;100.00
17781;BME280;8498;52.516;13.790;2023-12-20T17:36:59;100092.81;;;5.98;100.00
17781;BME280;8498;52.516;13.790;2023-12-20T17:42:23;100074.81;;;5.90;100.00
17781;BME280;8498;52.516;13.790;2023-12-20T17:47:45;100074.56;;;5.79;100.00
17781;BME280;8498;52.516;13.790;2023-12-20T17:53:09;100072.28;;;5.88;100.00
17781;BME280;8498;52.516;13.790;2023-12-20T17:58:31;100070.53;;;5.87;100.00
17781;BME280;8498;52.516;13.790;2023-12-20T18:03:53;100072.28;;;5.88;100.00
17781;BME280;8498;52.516;13.790;2023-12-20T18:09:16;100074.53;;;5.95;100.00
17781;BME280;8498;52.516;13.790;2023-12-20T18:14:38;100098.22;;;6.10;100.00
17781;BME280;8498;52.516;13.790;2023-12-20T18:20:02;100103.81;;;6.20;100.00
17781;BME280;8498;52.516;13.790;2023-12-20T18:25:25;100107.50;;;6.32;100.00
17781;BME280;8498;52.516;13.790;2023-12-20T18:30:47;100093.47;;;6.45;100.00
17781;BME280;8498;52.516;13.790;2023-12-20T18:36:10;100096.75;;;6.35;100.00
17781;BME280;8498;52.516;13.790;2023-12-20T18:41:32;100087.53;;;6.42;100.00
17781;BME280;8498;52.516;13.790;2023-12-20T18:46:55;100099.22;;;6.38;100.00
17781;BME280;8498;52.516;13.790;2023-12-20T18:52:17;100102.69;;;6.38;100.00
17781;BME280;8498;52.516;13.790;2023-12-20T18:57:40;100100.66;;;6.43;100.00
17781;BME280;8498;52.516;13.790;2023-12-20T19:03:02;100093.28;;;6.48;100.00
17781;BME280;8498;52.516;13.790;2023-12-20T19:08:25;100077.47;;;6.48;100.00
17781;BME280;8498;52.516;13.790;2023-12-20T19:13:47;100073.28;;;6.44;100.00
17781;BME280;8498;52.516;13.790;2023-12-20T19:19:10;100066.63;;;6.53;100.00
17781;BME280;8498;52.516;13.790;2023-12-20T19:24:32;100069.16;;;6.54;100.00
17781;BME280;8498;52.516;13.790;2023-12-20T19:29:55;100068.22;;;6.55;100.00
17781;BME280;8498;52.516;13.790;2023-12-20T19:35:19;100087.44;;;6.57;100.00
17781;BME280;8498;52.516;13.790;2023-12-20T19:40:41;100065.41;;;6.58;100.00
17781;BME280;8498;52.516;13.790;2023-12-20T19:46:04;100052.78;;;6.49;100.00
17781;BME280;8498;52.516;13.790;2023-12-20T19:51:26;100059.00;;;6.48;100.00
17781;BME280;8498;52.516;13.790;2023-12-20T19:56:49;100047.47;;;6.35;100.00
17781;BME280;8498;52.516;13.790;2023-12-20T20:02:11;100041.47;;;6.33;100.00
17781;BME280;8498;52.516;13.790;2023-12-20T20:07:34;100038.06;;;6.31;100.00
17781;BME280;8498;52.516;13.790;2023-12-20T20:12:56;100027.13;;;6.37;100.00
17781;BME280;8498;52.516;13.790;2023-12-20T20:18:19;100027.31;;;6.34;100.00
17781;BME280;8498;52.516;13.790;2023-12-20T20:23:42;100038.72;;;6.35;100.00
17781;BME280;8498;52.516;13.790;2023-12-20T20:29:04;100022.63;;;6.39;100.00
17781;BME280;8498;52.516;13.790;2023-12-20T20:34:26;100014.13;;;6.34;100.00
17781;BME280;8498;52.516;13.790;2023-12-20T20:39:50;100007.72;;;6.38;100.00
17781;BME280;8498;52.516;13.790;2023-12-20T20:45:12;100016.22;;;6.43;100.00
17781;BME280;8498;52.516;13.790;2023-12-20T20:50:35;99994.63;;;6.37;100.00
17781;BME280;8498;52.516;13.790;2023-12-20T20:55:58;99987.38;;;6.26;100.00
17781;BME280;8498;52.516;13.790;2023-12-20T21:01:21;99994.00;;;6.33;100.00
17781;BME280;8498;52.516;13.790;2023-12-20T21:06:45;99982.38;;;6.36;100.00
17781;BME280;8498;52.516;13.790;2023-12-20T21:12:09;99972.69;;;6.36;100.00
17781;BME280;8498;52.516;13.790;2023-12-20T21:17:31;99977.75;;;6.25;100.00
17781;BME280;8498;52.516;13.790;2023-12-20T21:22:54;99974.00;;;6.29;100.00
17781;BME280;8498;52.516;13.790;2023-12-20T21:28:19;99966.94;;;6.15;100.00
17781;BME280;8498;52.516;13.790;2023-12-20T21:33:46;99965.63;;;6.22;100.00
17781;BME280;8498;52.516;13.790;2023-12-20T21:39:10;99957.06;;;6.33;100.00
17781;BME280;8498;52.516;13.790;2023-12-20T21:44:33;99946.13;;;6.25;100.00
17781;BME280;8498;52.516;13.790;2023-12-20T21:49:55;99941.03;;;6.08;100.00
17781;BME280;8498;52.516;13.790;2023-12-20T21:55:18;99925.97;;;6.10;100.00
17781;BME280;8498;52.516;13.790;2023-12-20T22:00:40;99921.28;;;6.01;100.00
17781;BME280;8498;52.516;13.790;2023-12-20T22:06:03;99913.56;;;5.98;100.00
17781;BME280;8498;52.516;13.790;2023-12-20T22:11:26;99907.53;;;5.96;100.00
17781;BME280;8498;52.516;13.790;2023-12-20T22:16:48;99898.69;;;5.97;100.00
17781;BME280;8498;52.516;13.790;2023-12-20T22:22:11;99890.75;;;5.97;100.00
17781;BME280;8498;52.516;13.790;2023-12-20T22:27:33;99878.69;;;5.93;100.00
17781;BME280;8498;52.516;13.790;2023-12-20T22:32:55;99866.72;;;5.87;100.00
17781;BME280;8498;52.516;13.790;2023-12-20T22:38:18;99850.25;;;5.83;100.00
17781;BME280;8498;52.516;13.790;2023-12-20T22:43:40;99842.34;;;5.83;100.00
17781;BME280;8498;52.516;13.790;2023-12-20T22:49:03;99833.41;;;5.86;100.00
17781;BME280;8498;52.516;13.790;2023-12-20T22:54:26;99823.97;;;5.82;100.00
17781;BME280;8498;52.516;13.790;2023-12-20T22:59:48;99817.03;;;5.67;100.00
17781;BME280;8498;52.516;13.790;2023-12-20T23:05:11;99800.22;;;5.69;100.00
17781;BME280;8498;52.516;13.790;2023-12-20T23:10:33;99795.13;;;5.66;100.00
17781;BME280;8498;52.516;13.790;2023-12-20T23:15:57;99791.53;;;5.67;100.00
17781;BME280;8498;52.516;13.790;2023-12-20T23:21:19;99794.19;;;5.67;100.00
17781;BME280;8498;52.516;13.790;2023-12-20T23:26:41;99763.91;;;5.60;100.00
17781;BME280;8498;52.516;13.790;2023-12-20T23:32:05;99748.19;;;5.59;100.00
17781;BME280;8498;52.516;13.790;2023-12-20T23:37:27;99730.38;;;5.62;100.00
17781;BME280;8498;52.516;13.790;2023-12-20T23:42:49;99703.41;;;5.59;100.00
17781;BME280;8498;52.516;13.790;2023-12-20T23:48:11;99677.16;;;5.57;100.00
17781;BME280;8498;52.516;13.790;2023-12-20T23:53:34;99658.97;;;5.67;100.00
17781;BME280;8498;52.516;13.790;2023-12-20T23:58:56;99629.13;;;5.66;100.00
